Terminal Aerodrome Forecast
Issued by NWS Louisville, KY

Home | Current Version | Previous Version | Text Only | Print | Product List | Glossary On
Versions: 1 2 3 4 5 6 7 8 9 10 11 12 13 14 15 16 17 18 19 20 21 22 23
000
FTUS43 KLMK 211251 AAA
TAFLEX
TAF AMD
KLEX 211251Z 2113/2212 33008KT P6SM VCSH SCT012
      TEMPO 2113/2116 BKN015
     FM211600 35009KT P6SM VCSH SCT025 BKN050
     FM220700 03011KT 6SM -SHRA OVC015=

USA.gov is the U.S. government's official web portal to all federal, state and local government web resources and services.